Observations for MANCHESTER INTL, United Kingdom (EGCC)

EGCC 211720Z 19005KT 130V270 9999 VCSH FEW008 BKN010 03/02 Q1003 TEMPO BKN008   
EGCC 211650Z AUTO 16004KT 110V230 9999 BKN007 OVC011 03/02 Q1003 NOSIG  
EGCC 211620Z 16004KT 090V240 4000 -RADZ FEW006 BKN010 03/02 Q1004 TEMPO BKN006  
EGCC 211550Z 16006KT 080V220 6000 -RADZ FEW008 BKN012 02/01 Q1004 TEMPO 4000 RADZ BKN008
EGCC 211520Z 14006KT 090V180 4500 -RADZ FEW006 BKN008 02/01 Q1005 TEMPO BKN004  
EGCC 211450Z 16007KT 100V240 4000 -RADZ BKN008 02/01 Q1005 NOSIG
EGCC 211420Z 14007KT 100V190 4000 -RADZ FEW006 BKN008 02/01 Q1005 NOSIG 
EGCC 211350Z 16007G17KT 110V230 4500 -RADZ BKN008 02/01 Q1006 NOSIG 
EGCC 211320Z 15007G18KT 070V210 8000 -RA BKN010 02/01 Q1007 BECMG BKN008
EGCC 211250Z AUTO 15007KT 090V200 9999 -RA BKN010 OVC024 02/01 Q1007 TEMPO 1200 SNRA BKN003 
EGCC 211220Z AUTO 15007G17KT 100V230 9999 -RA BKN012/// BKN017/// OVC025/// //////TCU 02/00 Q1008 TEMPO 1200 SN BKN003  
EGCC 211150Z AUTO 15007KT 060V190 9999 -RA SCT009 BKN012 BKN020 01/00 Q1008 TEMPO 1200 SN BKN003
EGCC 211120Z AUTO 14007KT 070V210 1800 -SN OVC006/// //////TCU 01/00 Q1009 RESN TEMPO 1200 SN BKN003
EGCC 211050Z 13005KT 070V160 5000 -SN BKN007TCU BKN013 OVC036 01/00 Q1011 TEMPO 1200 SN BKN003  
EGCC 211020Z 13006KT 090V190 4100 -RASN SCT007 BKN019 BKN023 01/00 Q1011 TEMPO 2000 RASN BKN007 
EGCC 210950Z AUTO 14006KT 100V200 6000 -RA FEW011 SCT020 BKN028 02/00 Q1011 TEMPO 4000 RASN BKN010  
EGCC 210920Z AUTO 14006KT 080V190 9000 -RA FEW045 02/00 Q1012 NOSIG 
EGCC 210850Z AUTO 14004KT 080V200 7000 -RA //////CB 02/01 Q1012 TEMPO 4000 RADZ BKN008  
EGCC 210820Z AUTO 17004KT 130V300 6000 -RA BKN035 02/01 Q1012 TEMPO 4000 RADZ BKN005
EGCC 210750Z AUTO VRB03KT 5000 HZ SCT040 02/01 Q1012 RERA TEMPO 3000 RASN BKN008
EGCC 210720Z AUTO VRB03KT 4100 RA FEW017 SCT038 BKN049 02/01 Q1012 TEMPO RASN BKN005
EGCC 210650Z AUTO VRB03KT 3800 RA SCT034 OVC041 02/01 Q1013 
EGCC 210620Z AUTO VRB03KT 4600 HZ NCD 02/01 Q1013 NOSIG 
EGCC 210550Z AUTO VRB03KT 4500 HZ NCD 02/01 Q1013 NOSIG 
EGCC 210520Z AUTO VRB03KT 4500 HZ NCD 02/01 Q1013 NOSIG 
EGCC 210450Z AUTO VRB03KT 5000 BR SCT013 01/01 Q1013 TEMPO 3000 
EGCC 210420Z AUTO VRB03KT 3800 BR BKN011 01/01 Q1013 NOSIG  
EGCC 210350Z AUTO VRB03KT 2100 BR BKN002 BKN010 01/01 Q1012 TEMPO 1400 BKN001   
EGCC 210320Z AUTO VRB02KT 2100 BR FEW009 01/01 Q1012 TEMPO 1400 
EGCC 210250Z AUTO VRB02KT 1800 BR BKN002 BKN010 01/01 Q1013 TEMPO 1400 OVC001   
EGCC 210220Z AUTO VRB02KT 2300 BR SCT003 OVC009 02/01 Q1012 NOSIG   
EGCC 210150Z AUTO VRB02KT 2100 BR BKN002 BKN009 OVC014 02/01 Q1012 TEMPO 1400   
EGCC 210120Z AUTO VRB03KT 2600 BR OVC003 02/01 Q1012 NOSIG  
EGCC 210050Z AUTO VRB03KT 2500 BR OVC003 01/01 Q1012 NOSIG  
EGCC 210020Z AUTO VRB02KT 3200 BR BKN007 01/01 Q1011 TEMPO 1400 
EGCC 202350Z AUTO 21002KT 4700 BR SCT009 BKN012 01/00 Q1011 NOSIG   
EGCC 202320Z AUTO 11002KT 3100 BR BKN012 BKN021 01/01 Q1011 NOSIG   
EGCC 202250Z AUTO VRB02KT 4100 BR SCT018 BKN025 01/00 Q1011 NOSIG   
EGCC 202220Z AUTO VRB03KT 4200 HZ SCT012 BKN016 01/00 Q1010 NOSIG   
EGCC 202150Z AUTO VRB02KT 6000 OVC010 02/01 Q1009 NOSIG 
EGCC 202120Z AUTO VRB02KT 5000 HZ BKN009 OVC012 02/01 Q1009 BECMG 4000 BR BKN004
EGCC 202050Z AUTO VRB02KT 6000 OVC006 02/01 Q1009 BECMG 4000 BR OVC004  
EGCC 202020Z AUTO 34003KT 4500 HZ OVC005 02/01 Q1008 BECMG OVC004   
EGCC 201950Z 34007KT 5000 BR BKN005 02/01 Q1007 BECMG 3000 BR BKN004
EGCC 201920Z 31005KT 4000 BR FEW003 BKN004 02/01 Q1007 NOSIG
EGCC 201850Z 29004KT 3500 BR SCT003 02/01 Q1006 BECMG BKN003
EGCC 201820Z 27003KT 6000 FEW004 02/01 Q1005 BECMG 3000 BR BKN004   
EGCC 201750Z 29004KT 6000 FEW004 SCT006 02/01 Q1005 NOSIG   
EGCC 201720Z 29004KT 270V340 6000 SCT004 03/02 Q1004 NOSIG  
EGCC 201650Z 27003KT 7000 FEW004 02/01 Q1003 NOSIG